sensor_id;sensor_type;location;lat;lon;timestamp;P1;durP1;ratioP1;P2;durP2;ratioP2
19867;SDS011;10096;51.112;6.776;2022-12-18T00:02:24;16.10;;;10.73;;
19867;SDS011;10096;51.112;6.776;2022-12-18T00:04:52;15.47;;;10.87;;
19867;SDS011;10096;51.112;6.776;2022-12-18T00:07:20;13.50;;;10.67;;
19867;SDS011;10096;51.112;6.776;2022-12-18T00:09:47;15.10;;;10.63;;
19867;SDS011;10096;51.112;6.776;2022-12-18T00:12:14;15.07;;;10.37;;
19867;SDS011;10096;51.112;6.776;2022-12-18T00:14:41;18.70;;;11.60;;
19867;SDS011;10096;51.112;6.776;2022-12-18T00:17:10;14.23;;;10.23;;
19867;SDS011;10096;51.112;6.776;2022-12-18T00:19:38;17.37;;;10.93;;
19867;SDS011;10096;51.112;6.776;2022-12-18T00:22:07;15.27;;;10.67;;
19867;SDS011;10096;51.112;6.776;2022-12-18T00:24:34;16.80;;;10.43;;
19867;SDS011;10096;51.112;6.776;2022-12-18T00:27:01;16.73;;;12.27;;
19867;SDS011;10096;51.112;6.776;2022-12-18T00:29:30;17.03;;;11.23;;
19867;SDS011;10096;51.112;6.776;2022-12-18T00:31:57;14.87;;;10.93;;
19867;SDS011;10096;51.112;6.776;2022-12-18T00:34:26;15.63;;;10.83;;
19867;SDS011;10096;51.112;6.776;2022-12-18T00:36:53;17.10;;;10.63;;
19867;SDS011;10096;51.112;6.776;2022-12-18T00:39:20;18.00;;;11.70;;
19867;SDS011;10096;51.112;6.776;2022-12-18T00:41:47;19.37;;;12.30;;
19867;SDS011;10096;51.112;6.776;2022-12-18T00:44:31;14.93;;;10.23;;
19867;SDS011;10096;51.112;6.776;2022-12-18T00:46:58;17.47;;;11.57;;
19867;SDS011;10096;51.112;6.776;2022-12-18T00:49:27;18.30;;;10.90;;
19867;SDS011;10096;51.112;6.776;2022-12-18T00:51:54;14.73;;;10.80;;
19867;SDS011;10096;51.112;6.776;2022-12-18T00:54:21;17.70;;;11.83;;
19867;SDS011;10096;51.112;6.776;2022-12-18T00:56:48;15.37;;;11.00;;
19867;SDS011;10096;51.112;6.776;2022-12-18T00:59:16;16.90;;;11.97;;
19867;SDS011;10096;51.112;6.776;2022-12-18T01:01:44;17.57;;;11.33;;
19867;SDS011;10096;51.112;6.776;2022-12-18T01:04:11;18.00;;;12.23;;
19867;SDS011;10096;51.112;6.776;2022-12-18T01:06:40;16.90;;;11.70;;
19867;SDS011;10096;51.112;6.776;2022-12-18T01:09:07;17.23;;;11.93;;
19867;SDS011;10096;51.112;6.776;2022-12-18T01:11:34;19.40;;;12.33;;
19867;SDS011;10096;51.112;6.776;2022-12-18T01:14:01;21.03;;;12.33;;
19867;SDS011;10096;51.112;6.776;2022-12-18T01:16:28;18.00;;;11.70;;
19867;SDS011;10096;51.112;6.776;2022-12-18T01:18:55;19.07;;;11.80;;
19867;SDS011;10096;51.112;6.776;2022-12-18T01:21:22;16.43;;;12.20;;
19867;SDS011;10096;51.112;6.776;2022-12-18T01:23:52;17.63;;;10.93;;
19867;SDS011;10096;51.112;6.776;2022-12-18T01:26:20;20.03;;;12.13;;
19867;SDS011;10096;51.112;6.776;2022-12-18T01:28:50;17.03;;;11.80;;
19867;SDS011;10096;51.112;6.776;2022-12-18T01:31:18;21.33;;;13.20;;
19867;SDS011;10096;51.112;6.776;2022-12-18T01:33:48;17.07;;;11.67;;
19867;SDS011;10096;51.112;6.776;2022-12-18T01:36:16;17.50;;;12.23;;
19867;SDS011;10096;51.112;6.776;2022-12-18T01:38:45;15.87;;;11.10;;
19867;SDS011;10096;51.112;6.776;2022-12-18T01:41:15;15.67;;;11.47;;
19867;SDS011;10096;51.112;6.776;2022-12-18T01:43:45;17.13;;;10.83;;
19867;SDS011;10096;51.112;6.776;2022-12-18T01:46:15;17.77;;;11.93;;
19867;SDS011;10096;51.112;6.776;2022-12-18T01:48:42;18.80;;;12.47;;
19867;SDS011;10096;51.112;6.776;2022-12-18T01:51:14;17.23;;;12.73;;
19867;SDS011;10096;51.112;6.776;2022-12-18T01:53:44;17.90;;;11.57;;
19867;SDS011;10096;51.112;6.776;2022-12-18T01:56:18;18.23;;;12.40;;
19867;SDS011;10096;51.112;6.776;2022-12-18T01:58:50;18.70;;;12.23;;
19867;SDS011;10096;51.112;6.776;2022-12-18T02:01:22;16.77;;;11.23;;
19867;SDS011;10096;51.112;6.776;2022-12-18T02:03:49;16.47;;;11.33;;
19867;SDS011;10096;51.112;6.776;2022-12-18T02:06:19;18.37;;;11.73;;
19867;SDS011;10096;51.112;6.776;2022-12-18T02:08:55;14.53;;;11.63;;
19867;SDS011;10096;51.112;6.776;2022-12-18T02:11:32;15.87;;;11.00;;
19867;SDS011;10096;51.112;6.776;2022-12-18T02:14:08;16.97;;;11.67;;
19867;SDS011;10096;51.112;6.776;2022-12-18T02:16:44;16.07;;;11.17;;
19867;SDS011;10096;51.112;6.776;2022-12-18T02:19:20;14.87;;;10.23;;
19867;SDS011;10096;51.112;6.776;2022-12-18T02:22:07;18.90;;;11.90;;
19867;SDS011;10096;51.112;6.776;2022-12-18T02:24:51;14.37;;;11.40;;
19867;SDS011;10096;51.112;6.776;2022-12-18T02:27:28;17.67;;;11.10;;
19867;SDS011;10096;51.112;6.776;2022-12-18T02:29:58;14.27;;;10.30;;
19867;SDS011;10096;51.112;6.776;2022-12-18T02:32:29;14.77;;;11.10;;
19867;SDS011;10096;51.112;6.776;2022-12-18T02:35:00;17.83;;;10.90;;
19867;SDS011;10096;51.112;6.776;2022-12-18T02:37:30;12.73;;;9.93;;
19867;SDS011;10096;51.112;6.776;2022-12-18T02:39:59;14.20;;;9.80;;
19867;SDS011;10096;51.112;6.776;2022-12-18T02:42:30;16.17;;;10.50;;
19867;SDS011;10096;51.112;6.776;2022-12-18T02:44:58;13.80;;;10.00;;
19867;SDS011;10096;51.112;6.776;2022-12-18T02:47:27;16.50;;;12.30;;
19867;SDS011;10096;51.112;6.776;2022-12-18T02:49:58;17.67;;;10.50;;
19867;SDS011;10096;51.112;6.776;2022-12-18T02:52:32;15.27;;;9.90;;
19867;SDS011;10096;51.112;6.776;2022-12-18T02:55:08;15.37;;;10.43;;
19867;SDS011;10096;51.112;6.776;2022-12-18T02:57:48;15.27;;;10.37;;
19867;SDS011;10096;51.112;6.776;2022-12-18T03:00:20;16.80;;;11.53;;
19867;SDS011;10096;51.112;6.776;2022-12-18T03:02:51;14.00;;;9.73;;
19867;SDS011;10096;51.112;6.776;2022-12-18T03:05:24;15.17;;;10.57;;
19867;SDS011;10096;51.112;6.776;2022-12-18T03:07:57;16.40;;;10.30;;
19867;SDS011;10096;51.112;6.776;2022-12-18T03:10:30;16.17;;;9.17;;
19867;SDS011;10096;51.112;6.776;2022-12-18T03:13:04;13.20;;;9.50;;
19867;SDS011;10096;51.112;6.776;2022-12-18T03:15:34;13.63;;;9.77;;
19867;SDS011;10096;51.112;6.776;2022-12-18T03:18:03;14.10;;;8.57;;
19867;SDS011;10096;51.112;6.776;2022-12-18T03:20:34;14.33;;;9.00;;
19867;SDS011;10096;51.112;6.776;2022-12-18T03:23:06;12.40;;;9.10;;
19867;SDS011;10096;51.112;6.776;2022-12-18T03:25:36;13.70;;;10.07;;
19867;SDS011;10096;51.112;6.776;2022-12-18T03:28:12;12.53;;;9.90;;
19867;SDS011;10096;51.112;6.776;2022-12-18T03:30:42;17.03;;;9.57;;
19867;SDS011;10096;51.112;6.776;2022-12-18T03:33:13;14.80;;;9.63;;
19867;SDS011;10096;51.112;6.776;2022-12-18T03:35:44;16.30;;;10.20;;
19867;SDS011;10096;51.112;6.776;2022-12-18T03:38:12;14.23;;;10.00;;
19867;SDS011;10096;51.112;6.776;2022-12-18T03:40:43;14.37;;;9.73;;
19867;SDS011;10096;51.112;6.776;2022-12-18T03:43:20;13.97;;;10.57;;
19867;SDS011;10096;51.112;6.776;2022-12-18T03:45:59;15.30;;;9.57;;
19867;SDS011;10096;51.112;6.776;2022-12-18T03:48:31;15.30;;;9.97;;
19867;SDS011;10096;51.112;6.776;2022-12-18T03:51:05;18.07;;;10.97;;
19867;SDS011;10096;51.112;6.776;2022-12-18T03:53:36;15.13;;;9.63;;
19867;SDS011;10096;51.112;6.776;2022-12-18T03:56:08;12.60;;;9.67;;
19867;SDS011;10096;51.112;6.776;2022-12-18T03:58:37;13.20;;;9.63;;
19867;SDS011;10096;51.112;6.776;2022-12-18T04:01:06;13.43;;;8.97;;
19867;SDS011;10096;51.112;6.776;2022-12-18T04:03:34;12.63;;;8.97;;
19867;SDS011;10096;51.112;6.776;2022-12-18T04:06:03;10.97;;;8.93;;
19867;SDS011;10096;51.112;6.776;2022-12-18T04:08:32;12.07;;;8.97;;
19867;SDS011;10096;51.112;6.776;2022-12-18T04:11:01;14.37;;;9.70;;
19867;SDS011;10096;51.112;6.776;2022-12-18T04:13:29;15.23;;;9.70;;
19867;SDS011;10096;51.112;6.776;2022-12-18T04:16:02;16.20;;;10.00;;
19867;SDS011;10096;51.112;6.776;2022-12-18T04:18:29;13.77;;;9.80;;
19867;SDS011;10096;51.112;6.776;2022-12-18T04:20:57;15.50;;;9.30;;
19867;SDS011;10096;51.112;6.776;2022-12-18T04:23:24;15.27;;;9.17;;
19867;SDS011;10096;51.112;6.776;2022-12-18T04:25:51;15.63;;;9.73;;
19867;SDS011;10096;51.112;6.776;2022-12-18T04:28:18;14.40;;;9.83;;
19867;SDS011;10096;51.112;6.776;2022-12-18T04:30:45;16.03;;;10.80;;
19867;SDS011;10096;51.112;6.776;2022-12-18T04:33:21;13.33;;;8.90;;
19867;SDS011;10096;51.112;6.776;2022-12-18T04:35:48;17.23;;;10.70;;
19867;SDS011;10096;51.112;6.776;2022-12-18T04:38:15;13.40;;;10.13;;
19867;SDS011;10096;51.112;6.776;2022-12-18T04:40:42;14.17;;;10.23;;
19867;SDS011;10096;51.112;6.776;2022-12-18T04:43:09;16.67;;;10.40;;
19867;SDS011;10096;51.112;6.776;2022-12-18T04:45:36;12.73;;;10.07;;
19867;SDS011;10096;51.112;6.776;2022-12-18T04:48:04;18.33;;;11.93;;
19867;SDS011;10096;51.112;6.776;2022-12-18T04:50:32;13.67;;;8.63;;
19867;SDS011;10096;51.112;6.776;2022-12-18T04:53:00;12.10;;;8.00;;
19867;SDS011;10096;51.112;6.776;2022-12-18T04:55:27;14.53;;;10.37;;
19867;SDS011;10096;51.112;6.776;2022-12-18T04:57:54;14.20;;;8.97;;
19867;SDS011;10096;51.112;6.776;2022-12-18T05:00:22;13.77;;;8.27;;
19867;SDS011;10096;51.112;6.776;2022-12-18T05:02:54;13.50;;;9.37;;
19867;SDS011;10096;51.112;6.776;2022-12-18T05:05:24;12.63;;;7.77;;
19867;SDS011;10096;51.112;6.776;2022-12-18T05:07:52;13.30;;;9.07;;
19867;SDS011;10096;51.112;6.776;2022-12-18T05:10:22;11.87;;;7.43;;
19867;SDS011;10096;51.112;6.776;2022-12-18T05:12:49;12.97;;;8.63;;
19867;SDS011;10096;51.112;6.776;2022-12-18T05:15:26;13.67;;;8.53;;
19867;SDS011;10096;51.112;6.776;2022-12-18T05:17:54;15.33;;;9.33;;
19867;SDS011;10096;51.112;6.776;2022-12-18T05:20:22;10.90;;;8.27;;
19867;SDS011;10096;51.112;6.776;2022-12-18T05:22:49;14.13;;;8.87;;
19867;SDS011;10096;51.112;6.776;2022-12-18T05:25:18;11.47;;;8.60;;
19867;SDS011;10096;51.112;6.776;2022-12-18T05:27:46;14.87;;;8.83;;
19867;SDS011;10096;51.112;6.776;2022-12-18T05:30:14;14.37;;;9.57;;
19867;SDS011;10096;51.112;6.776;2022-12-18T05:32:42;13.77;;;8.33;;
19867;SDS011;10096;51.112;6.776;2022-12-18T05:35:10;11.57;;;8.60;;
19867;SDS011;10096;51.112;6.776;2022-12-18T05:37:37;11.83;;;7.90;;
19867;SDS011;10096;51.112;6.776;2022-12-18T05:40:05;11.70;;;9.23;;
19867;SDS011;10096;51.112;6.776;2022-12-18T05:42:34;11.97;;;8.57;;
19867;SDS011;10096;51.112;6.776;2022-12-18T05:45:05;10.83;;;7.27;;
19867;SDS011;10096;51.112;6.776;2022-12-18T05:47:35;13.40;;;8.37;;
19867;SDS011;10096;51.112;6.776;2022-12-18T05:50:02;11.43;;;7.70;;
19867;SDS011;10096;51.112;6.776;2022-12-18T05:52:31;13.43;;;8.90;;
19867;SDS011;10096;51.112;6.776;2022-12-18T05:54:58;13.40;;;8.50;;
19867;SDS011;10096;51.112;6.776;2022-12-18T05:57:25;11.67;;;9.00;;
19867;SDS011;10096;51.112;6.776;2022-12-18T05:59:54;11.20;;;7.87;;
19867;SDS011;10096;51.112;6.776;2022-12-18T06:02:21;12.83;;;8.40;;
19867;SDS011;10096;51.112;6.776;2022-12-18T06:04:48;13.07;;;9.17;;
19867;SDS011;10096;51.112;6.776;2022-12-18T06:07:15;12.13;;;8.90;;
19867;SDS011;10096;51.112;6.776;2022-12-18T06:09:42;12.57;;;9.33;;
19867;SDS011;10096;51.112;6.776;2022-12-18T06:12:09;14.00;;;9.30;;
19867;SDS011;10096;51.112;6.776;2022-12-18T06:14:36;14.73;;;9.90;;
19867;SDS011;10096;51.112;6.776;2022-12-18T06:17:05;13.80;;;9.77;;
19867;SDS011;10096;51.112;6.776;2022-12-18T06:19:34;11.33;;;9.27;;
19867;SDS011;10096;51.112;6.776;2022-12-18T06:22:01;11.80;;;8.50;;
19867;SDS011;10096;51.112;6.776;2022-12-18T06:24:28;13.63;;;10.00;;
19867;SDS011;10096;51.112;6.776;2022-12-18T06:26:56;13.87;;;9.37;;
19867;SDS011;10096;51.112;6.776;2022-12-18T06:29:23;13.10;;;8.97;;
19867;SDS011;10096;51.112;6.776;2022-12-18T06:31:50;14.77;;;10.00;;
19867;SDS011;10096;51.112;6.776;2022-12-18T06:34:18;14.73;;;9.90;;
19867;SDS011;10096;51.112;6.776;2022-12-18T06:36:45;14.70;;;8.43;;
19867;SDS011;10096;51.112;6.776;2022-12-18T06:39:13;15.57;;;10.20;;
19867;SDS011;10096;51.112;6.776;2022-12-18T06:41:40;14.90;;;9.30;;
19867;SDS011;10096;51.112;6.776;2022-12-18T06:44:08;13.30;;;10.17;;
19867;SDS011;10096;51.112;6.776;2022-12-18T06:46:35;14.30;;;9.07;;
19867;SDS011;10096;51.112;6.776;2022-12-18T06:49:03;16.97;;;10.80;;
19867;SDS011;10096;51.112;6.776;2022-12-18T06:51:31;18.17;;;11.00;;
19867;SDS011;10096;51.112;6.776;2022-12-18T06:53:58;7.87;;;6.50;;
19867;SDS011;10096;51.112;6.776;2022-12-18T06:56:27;12.43;;;9.03;;
19867;SDS011;10096;51.112;6.776;2022-12-18T06:58:55;12.03;;;9.40;;
19867;SDS011;10096;51.112;6.776;2022-12-18T07:01:22;11.07;;;7.73;;
19867;SDS011;10096;51.112;6.776;2022-12-18T07:03:51;10.57;;;7.63;;
19867;SDS011;10096;51.112;6.776;2022-12-18T07:06:21;12.00;;;7.80;;
19867;SDS011;10096;51.112;6.776;2022-12-18T07:08:51;11.97;;;8.50;;
19867;SDS011;10096;51.112;6.776;2022-12-18T07:11:19;13.90;;;9.20;;
19867;SDS011;10096;51.112;6.776;2022-12-18T07:13:46;12.67;;;8.80;;
19867;SDS011;10096;51.112;6.776;2022-12-18T07:16:14;12.93;;;8.23;;
19867;SDS011;10096;51.112;6.776;2022-12-18T07:18:44;13.57;;;8.93;;
19867;SDS011;10096;51.112;6.776;2022-12-18T07:21:12;11.43;;;7.67;;
19867;SDS011;10096;51.112;6.776;2022-12-18T07:23:40;15.30;;;10.07;;
19867;SDS011;10096;51.112;6.776;2022-12-18T07:26:09;13.07;;;8.87;;
19867;SDS011;10096;51.112;6.776;2022-12-18T07:28:38;15.63;;;10.17;;
19867;SDS011;10096;51.112;6.776;2022-12-18T07:31:07;19.30;;;10.43;;
19867;SDS011;10096;51.112;6.776;2022-12-18T07:33:36;14.20;;;9.00;;
19867;SDS011;10096;51.112;6.776;2022-12-18T07:36:04;15.00;;;9.13;;
19867;SDS011;10096;51.112;6.776;2022-12-18T07:38:34;10.60;;;7.80;;
19867;SDS011;10096;51.112;6.776;2022-12-18T07:41:01;11.97;;;8.30;;
19867;SDS011;10096;51.112;6.776;2022-12-18T07:43:30;15.87;;;9.67;;
19867;SDS011;10096;51.112;6.776;2022-12-18T07:45:58;14.80;;;9.57;;
19867;SDS011;10096;51.112;6.776;2022-12-18T07:48:25;14.07;;;8.03;;
19867;SDS011;10096;51.112;6.776;2022-12-18T07:50:53;13.53;;;9.97;;
19867;SDS011;10096;51.112;6.776;2022-12-18T07:53:23;14.67;;;9.63;;
19867;SDS011;10096;51.112;6.776;2022-12-18T07:55:54;15.40;;;9.20;;
19867;SDS011;10096;51.112;6.776;2022-12-18T07:58:22;14.63;;;9.47;;
19867;SDS011;10096;51.112;6.776;2022-12-18T08:00:50;13.37;;;9.63;;
19867;SDS011;10096;51.112;6.776;2022-12-18T08:03:18;15.13;;;10.10;;
19867;SDS011;10096;51.112;6.776;2022-12-18T08:05:45;15.03;;;9.13;;
19867;SDS011;10096;51.112;6.776;2022-12-18T08:08:12;11.60;;;6.27;;
19867;SDS011;10096;51.112;6.776;2022-12-18T08:10:40;12.63;;;9.07;;
19867;SDS011;10096;51.112;6.776;2022-12-18T08:13:07;10.70;;;7.93;;
19867;SDS011;10096;51.112;6.776;2022-12-18T08:15:35;14.73;;;6.50;;
19867;SDS011;10096;51.112;6.776;2022-12-18T08:18:04;13.37;;;9.07;;
19867;SDS011;10096;51.112;6.776;2022-12-18T08:20:31;15.30;;;10.37;;
19867;SDS011;10096;51.112;6.776;2022-12-18T08:22:58;12.57;;;8.50;;
19867;SDS011;10096;51.112;6.776;2022-12-18T08:25:25;11.33;;;7.87;;
19867;SDS011;10096;51.112;6.776;2022-12-18T08:27:52;14.47;;;9.93;;
19867;SDS011;10096;51.112;6.776;2022-12-18T08:30:21;13.07;;;9.43;;
19867;SDS011;10096;51.112;6.776;2022-12-18T08:32:50;15.53;;;9.83;;
19867;SDS011;10096;51.112;6.776;2022-12-18T08:35:19;10.50;;;8.27;;
19867;SDS011;10096;51.112;6.776;2022-12-18T08:37:46;15.83;;;9.50;;
19867;SDS011;10096;51.112;6.776;2022-12-18T08:40:13;13.50;;;9.37;;
19867;SDS011;10096;51.112;6.776;2022-12-18T08:42:40;14.10;;;9.50;;
19867;SDS011;10096;51.112;6.776;2022-12-18T08:45:25;11.73;;;8.43;;
19867;SDS011;10096;51.112;6.776;2022-12-18T08:47:52;11.47;;;7.70;;
19867;SDS011;10096;51.112;6.776;2022-12-18T08:50:20;8.67;;;7.37;;
19867;SDS011;10096;51.112;6.776;2022-12-18T08:52:47;16.77;;;8.90;;
19867;SDS011;10096;51.112;6.776;2022-12-18T08:55:14;15.10;;;8.90;;
19867;SDS011;10096;51.112;6.776;2022-12-18T08:57:42;12.97;;;8.93;;
19867;SDS011;10096;51.112;6.776;2022-12-18T09:00:09;14.43;;;8.80;;
19867;SDS011;10096;51.112;6.776;2022-12-18T09:02:38;11.60;;;8.87;;
19867;SDS011;10096;51.112;6.776;2022-12-18T09:05:05;11.57;;;8.70;;
19867;SDS011;10096;51.112;6.776;2022-12-18T09:07:34;15.13;;;9.27;;
19867;SDS011;10096;51.112;6.776;2022-12-18T09:10:01;16.07;;;10.23;;
19867;SDS011;10096;51.112;6.776;2022-12-18T09:12:30;13.20;;;8.77;;
19867;SDS011;10096;51.112;6.776;2022-12-18T09:14:58;13.93;;;9.83;;
19867;SDS011;10096;51.112;6.776;2022-12-18T09:17:25;16.63;;;9.93;;
19867;SDS011;10096;51.112;6.776;2022-12-18T09:19:52;12.60;;;8.47;;
19867;SDS011;10096;51.112;6.776;2022-12-18T09:22:19;12.03;;;6.97;;
19867;SDS011;10096;51.112;6.776;2022-12-18T09:24:48;10.60;;;7.17;;
19867;SDS011;10096;51.112;6.776;2022-12-18T09:27:15;13.70;;;9.03;;
19867;SDS011;10096;51.112;6.776;2022-12-18T09:29:42;13.63;;;8.40;;
19867;SDS011;10096;51.112;6.776;2022-12-18T09:32:09;14.30;;;8.13;;
19867;SDS011;10096;51.112;6.776;2022-12-18T09:34:36;11.47;;;8.57;;
19867;SDS011;10096;51.112;6.776;2022-12-18T09:37:03;10.40;;;7.73;;
19867;SDS011;10096;51.112;6.776;2022-12-18T09:39:30;9.77;;;6.90;;
19867;SDS011;10096;51.112;6.776;2022-12-18T09:41:58;17.70;;;10.83;;
19867;SDS011;10096;51.112;6.776;2022-12-18T09:44:26;11.53;;;7.90;;
19867;SDS011;10096;51.112;6.776;2022-12-18T09:47:02;14.80;;;9.73;;
19867;SDS011;10096;51.112;6.776;2022-12-18T09:49:36;14.10;;;9.13;;
19867;SDS011;10096;51.112;6.776;2022-12-18T09:52:09;13.83;;;9.10;;
19867;SDS011;10096;51.112;6.776;2022-12-18T09:54:43;11.70;;;8.67;;
19867;SDS011;10096;51.112;6.776;2022-12-18T09:57:15;18.83;;;11.83;;
19867;SDS011;10096;51.112;6.776;2022-12-18T09:59:46;14.03;;;10.80;;
19867;SDS011;10096;51.112;6.776;2022-12-18T10:02:17;15.03;;;9.87;;
19867;SDS011;10096;51.112;6.776;2022-12-18T10:04:48;16.57;;;10.50;;
19867;SDS011;10096;51.112;6.776;2022-12-18T10:07:23;10.70;;;8.40;;
19867;SDS011;10096;51.112;6.776;2022-12-18T10:09:57;12.40;;;8.63;;
19867;SDS011;10096;51.112;6.776;2022-12-18T10:12:36;16.97;;;10.37;;
19867;SDS011;10096;51.112;6.776;2022-12-18T10:15:10;14.13;;;8.70;;
19867;SDS011;10096;51.112;6.776;2022-12-18T10:17:46;15.13;;;10.37;;
19867;SDS011;10096;51.112;6.776;2022-12-18T10:20:23;17.40;;;10.27;;
19867;SDS011;10096;51.112;6.776;2022-12-18T10:22:57;12.80;;;8.83;;
19867;SDS011;10096;51.112;6.776;2022-12-18T10:25:31;16.10;;;8.80;;
19867;SDS011;10096;51.112;6.776;2022-12-18T10:28:09;15.60;;;9.77;;
19867;SDS011;10096;51.112;6.776;2022-12-18T10:30:38;16.27;;;10.37;;
19867;SDS011;10096;51.112;6.776;2022-12-18T10:33:08;14.70;;;9.67;;
19867;SDS011;10096;51.112;6.776;2022-12-18T10:35:38;18.03;;;10.97;;
19867;SDS011;10096;51.112;6.776;2022-12-18T10:38:22;19.20;;;10.47;;
19867;SDS011;10096;51.112;6.776;2022-12-18T10:40:51;17.80;;;11.77;;
19867;SDS011;10096;51.112;6.776;2022-12-18T10:43:23;14.10;;;11.20;;
19867;SDS011;10096;51.112;6.776;2022-12-18T10:45:59;18.67;;;11.13;;
19867;SDS011;10096;51.112;6.776;2022-12-18T10:48:47;18.17;;;11.50;;
19867;SDS011;10096;51.112;6.776;2022-12-18T10:51:22;13.70;;;8.70;;
19867;SDS011;10096;51.112;6.776;2022-12-18T10:53:52;17.03;;;11.73;;
19867;SDS011;10096;51.112;6.776;2022-12-18T10:56:22;11.63;;;7.60;;
19867;SDS011;10096;51.112;6.776;2022-12-18T10:58:58;15.97;;;11.20;;
19867;SDS011;10096;51.112;6.776;2022-12-18T11:01:27;12.83;;;10.00;;
19867;SDS011;10096;51.112;6.776;2022-12-18T11:03:59;15.67;;;10.77;;
19867;SDS011;10096;51.112;6.776;2022-12-18T11:06:30;13.57;;;8.60;;
19867;SDS011;10096;51.112;6.776;2022-12-18T11:08:58;15.90;;;11.03;;
19867;SDS011;10096;51.112;6.776;2022-12-18T11:11:27;16.13;;;9.10;;
19867;SDS011;10096;51.112;6.776;2022-12-18T11:13:59;15.37;;;11.83;;
19867;SDS011;10096;51.112;6.776;2022-12-18T11:16:29;13.90;;;10.83;;
19867;SDS011;10096;51.112;6.776;2022-12-18T11:19:17;19.13;;;12.50;;
19867;SDS011;10096;51.112;6.776;2022-12-18T11:21:50;17.07;;;11.43;;
19867;SDS011;10096;51.112;6.776;2022-12-18T11:24:19;18.43;;;10.63;;
19867;SDS011;10096;51.112;6.776;2022-12-18T11:26:51;15.80;;;10.67;;
19867;SDS011;10096;51.112;6.776;2022-12-18T11:29:23;17.53;;;11.63;;
19867;SDS011;10096;51.112;6.776;2022-12-18T11:32:05;15.50;;;11.20;;
19867;SDS011;10096;51.112;6.776;2022-12-18T11:34:59;14.67;;;9.57;;
19867;SDS011;10096;51.112;6.776;2022-12-18T11:37:35;15.17;;;10.97;;
19867;SDS011;10096;51.112;6.776;2022-12-18T11:40:06;15.17;;;11.13;;
19867;SDS011;10096;51.112;6.776;2022-12-18T11:42:41;20.13;;;10.23;;
19867;SDS011;10096;51.112;6.776;2022-12-18T11:45:35;19.17;;;10.90;;
19867;SDS011;10096;51.112;6.776;2022-12-18T11:48:09;15.33;;;9.67;;
19867;SDS011;10096;51.112;6.776;2022-12-18T11:50:43;15.90;;;9.97;;
19867;SDS011;10096;51.112;6.776;2022-12-18T11:53:14;15.40;;;11.37;;
19867;SDS011;10096;51.112;6.776;2022-12-18T11:55:41;14.13;;;8.80;;
19867;SDS011;10096;51.112;6.776;2022-12-18T11:58:19;17.57;;;11.40;;
19867;SDS011;10096;51.112;6.776;2022-12-18T12:01:00;17.97;;;11.97;;
19867;SDS011;10096;51.112;6.776;2022-12-18T12:03:42;21.37;;;10.97;;
19867;SDS011;10096;51.112;6.776;2022-12-18T12:06:23;17.87;;;9.87;;
19867;SDS011;10096;51.112;6.776;2022-12-18T12:09:01;16.73;;;11.77;;
19867;SDS011;10096;51.112;6.776;2022-12-18T12:11:39;19.40;;;13.07;;
19867;SDS011;10096;51.112;6.776;2022-12-18T12:14:18;19.63;;;12.83;;
19867;SDS011;10096;51.112;6.776;2022-12-18T12:16:57;14.83;;;11.17;;
19867;SDS011;10096;51.112;6.776;2022-12-18T12:19:32;22.43;;;12.50;;
19867;SDS011;10096;51.112;6.776;2022-12-18T12:22:11;17.97;;;12.60;;
19867;SDS011;10096;51.112;6.776;2022-12-18T12:24:49;17.17;;;11.50;;
19867;SDS011;10096;51.112;6.776;2022-12-18T12:27:39;16.67;;;11.10;;
19867;SDS011;10096;51.112;6.776;2022-12-18T12:30:17;15.60;;;10.57;;
19867;SDS011;10096;51.112;6.776;2022-12-18T12:32:57;17.33;;;12.17;;
19867;SDS011;10096;51.112;6.776;2022-12-18T12:35:44;18.03;;;12.63;;
19867;SDS011;10096;51.112;6.776;2022-12-18T12:38:19;20.00;;;12.03;;
19867;SDS011;10096;51.112;6.776;2022-12-18T12:40:52;22.77;;;12.07;;
19867;SDS011;10096;51.112;6.776;2022-12-18T12:43:57;18.27;;;12.03;;
19867;SDS011;10096;51.112;6.776;2022-12-18T12:46:26;21.97;;;13.23;;
19867;SDS011;10096;51.112;6.776;2022-12-18T12:48:58;15.43;;;11.33;;
19867;SDS011;10096;51.112;6.776;2022-12-18T12:51:30;20.50;;;13.00;;
19867;SDS011;10096;51.112;6.776;2022-12-18T12:54:01;16.70;;;11.73;;
19867;SDS011;10096;51.112;6.776;2022-12-18T12:56:34;23.40;;;14.03;;
19867;SDS011;10096;51.112;6.776;2022-12-18T12:59:08;18.20;;;13.97;;
19867;SDS011;10096;51.112;6.776;2022-12-18T13:01:40;23.57;;;15.07;;
19867;SDS011;10096;51.112;6.776;2022-12-18T13:04:23;20.93;;;15.70;;
19867;SDS011;10096;51.112;6.776;2022-12-18T13:06:58;21.40;;;15.27;;
19867;SDS011;10096;51.112;6.776;2022-12-18T13:09:31;19.60;;;13.40;;
19867;SDS011;10096;51.112;6.776;2022-12-18T13:12:01;21.77;;;14.67;;
19867;SDS011;10096;51.112;6.776;2022-12-18T13:14:48;21.20;;;14.77;;
19867;SDS011;10096;51.112;6.776;2022-12-18T13:17:16;21.27;;;14.23;;
19867;SDS011;10096;51.112;6.776;2022-12-18T13:20:04;27.17;;;16.23;;
19867;SDS011;10096;51.112;6.776;2022-12-18T13:22:36;21.27;;;15.00;;
19867;SDS011;10096;51.112;6.776;2022-12-18T13:28:11;18.50;;;11.83;;
19867;SDS011;10096;51.112;6.776;2022-12-18T13:36:29;21.27;;;13.50;;
19867;SDS011;10096;51.112;6.776;2022-12-18T13:39:21;19.17;;;12.50;;
19867;SDS011;10096;51.112;6.776;2022-12-18T13:45:34;19.00;;;13.07;;
19867;SDS011;10096;51.112;6.776;2022-12-18T13:48:04;19.60;;;11.40;;
19867;SDS011;10096;51.112;6.776;2022-12-18T13:50:31;18.77;;;13.50;;
19867;SDS011;10096;51.112;6.776;2022-12-18T13:53:01;20.53;;;13.37;;
19867;SDS011;10096;51.112;6.776;2022-12-18T13:55:30;20.17;;;12.33;;
19867;SDS011;10096;51.112;6.776;2022-12-18T13:58:02;19.30;;;12.37;;
19867;SDS011;10096;51.112;6.776;2022-12-18T14:00:30;17.77;;;12.07;;
19867;SDS011;10096;51.112;6.776;2022-12-18T14:02:58;22.03;;;12.47;;
19867;SDS011;10096;51.112;6.776;2022-12-18T14:05:26;17.20;;;11.70;;
19867;SDS011;10096;51.112;6.776;2022-12-18T14:07:58;20.10;;;12.77;;
19867;SDS011;10096;51.112;6.776;2022-12-18T14:10:31;16.83;;;10.13;;
19867;SDS011;10096;51.112;6.776;2022-12-18T14:12:59;22.13;;;13.47;;
19867;SDS011;10096;51.112;6.776;2022-12-18T14:15:32;18.60;;;12.63;;
19867;SDS011;10096;51.112;6.776;2022-12-18T14:18:01;24.73;;;14.93;;
19867;SDS011;10096;51.112;6.776;2022-12-18T14:20:36;20.87;;;13.87;;
19867;SDS011;10096;51.112;6.776;2022-12-18T14:23:23;19.87;;;13.70;;
19867;SDS011;10096;51.112;6.776;2022-12-18T14:25:52;23.80;;;14.63;;
19867;SDS011;10096;51.112;6.776;2022-12-18T14:28:22;20.73;;;12.93;;
19867;SDS011;10096;51.112;6.776;2022-12-18T14:30:49;11.63;;;9.53;;
19867;SDS011;10096;51.112;6.776;2022-12-18T14:33:17;23.50;;;14.73;;
19867;SDS011;10096;51.112;6.776;2022-12-18T14:35:52;18.10;;;12.27;;
19867;SDS011;10096;51.112;6.776;2022-12-18T14:38:23;19.57;;;14.40;;
19867;SDS011;10096;51.112;6.776;2022-12-18T14:40:56;25.97;;;16.40;;
19867;SDS011;10096;51.112;6.776;2022-12-18T14:43:24;19.63;;;10.97;;
19867;SDS011;10096;51.112;6.776;2022-12-18T14:45:52;19.83;;;14.50;;
19867;SDS011;10096;51.112;6.776;2022-12-18T14:48:20;26.30;;;16.07;;
19867;SDS011;10096;51.112;6.776;2022-12-18T14:50:57;18.07;;;12.03;;
19867;SDS011;10096;51.112;6.776;2022-12-18T14:53:46;17.43;;;12.20;;
19867;SDS011;10096;51.112;6.776;2022-12-18T14:56:21;24.63;;;14.27;;
19867;SDS011;10096;51.112;6.776;2022-12-18T14:58:50;22.60;;;14.77;;
19867;SDS011;10096;51.112;6.776;2022-12-18T15:01:21;23.87;;;14.93;;
19867;SDS011;10096;51.112;6.776;2022-12-18T15:03:50;20.70;;;13.70;;